Sherman, Texas
Current Conditions -  °F | °C
As of 2:15 AM on Thursday 18 Dec 2014 (Local Time) from KGYI Reporting Station
Overcast Overcast  
Wind Chill:   Ceiling: 500
Heat Index:   Visibility: 10mi
Dew Point:   Wind: 6mph
Humidity: 100%   Direction: 120°ESE
Pressure: 30.14"   Gusts: NA
Location:  33.64°N, 96.61°W
Report Text: KGYI 180815Z AUTO 12005KT 10SM OVC005 04/04 A3014 RMK AO2 T00410041
Loading
Personal Weather Stations






























Interactive Weather Map New forecast layout! Learn more

10-Day Weather Forecast

Advertisements
Track Severe Weather on mobile